Time;durP1;ratioP1;P1;durP2;ratioP2;P2;SDS_P1;SDS_P2;PMS_P1;PMS_P2;Temp;Humidity;BMP_temperature;BMP_pressure;BME280_temperature;BME280_humidity;BME280_pressure;Samples;Min_cycle;Max_cycle;Signal;HPM_P1;HPM_P2
2022/06/15 00:00:45;;;;;;;0.82;0.82;;;17.90;70.60;;;;;;5041954;28;20567;-74
2022/06/15 00:03:13;;;;;;;0.85;0.85;;;17.90;70.70;;;;;;5043165;28;20262;-74
2022/06/15 00:05:42;;;;;;;0.77;0.77;;;17.90;70.20;;;;;;5043257;28;20761;-75
2022/06/15 00:08:08;;;;;;;0.70;0.70;;;17.90;70.30;;;;;;5038162;28;20189;-74
2022/06/15 00:10:34;;;;;;;2.05;0.90;;;17.80;70.50;;;;;;5043127;28;20187;-73
2022/06/15 00:13:01;;;;;;;0.70;0.70;;;17.80;70.20;;;;;;5040487;28;20180;-74
2022/06/15 00:15:27;;;;;;;1.00;0.70;;;17.80;69.20;;;;;;5040412;28;20237;-75
2022/06/15 00:17:53;;;;;;;0.70;0.70;;;17.80;69.30;;;;;;5043905;28;20215;-75
2022/06/15 00:20:19;;;;;;;0.80;0.80;;;17.80;69.10;;;;;;5043288;28;20219;-75
2022/06/15 00:22:44;;;;;;;0.75;0.75;;;17.80;69.60;;;;;;5042664;28;20195;-75
2022/06/15 00:25:10;;;;;;;0.90;0.90;;;17.90;69.30;;;;;;5042552;28;20202;-74
2022/06/15 00:27:36;;;;;;;0.80;0.80;;;17.90;69.60;;;;;;5043463;28;20333;-75
2022/06/15 00:30:06;;;;;;;0.80;0.80;;;17.90;69.30;;;;;;5043737;28;20183;-74
2022/06/15 00:32:32;;;;;;;0.90;0.90;;;17.80;68.90;;;;;;5039097;28;20211;-75
2022/06/15 00:34:58;;;;;;;0.95;0.95;;;17.80;69.00;;;;;;5041168;28;20207;-74
2022/06/15 00:37:24;;;;;;;1.80;0.98;;;17.80;69.00;;;;;;5043372;28;20203;-73
2022/06/15 00:39:49;;;;;;;0.80;0.80;;;17.80;68.80;;;;;;5042661;28;20183;-74
2022/06/15 00:42:15;;;;;;;0.85;0.85;;;17.80;69.30;;;;;;5042774;28;20229;-74
2022/06/15 00:44:42;;;;;;;0.70;0.70;;;17.80;69.30;;;;;;5040595;28;20183;-74
2022/06/15 00:47:33;;;;;;;0.70;0.70;;;17.80;68.60;;;;;;5040798;28;20241;-75
2022/06/15 00:50:07;;;;;;;0.85;0.85;;;17.80;68.60;;;;;;5042035;28;20175;-73
2022/06/15 00:52:50;;;;;;;0.85;0.85;;;17.70;68.60;;;;;;5042488;28;20218;-73
2022/06/15 00:55:23;;;;;;;0.68;0.68;;;17.70;68.40;;;;;;5040981;28;20187;-74
2022/06/15 00:57:50;;;;;;;0.85;0.85;;;17.70;68.70;;;;;;5042532;28;20219;-73
2022/06/15 01:00:16;;;;;;;0.80;0.80;;;17.70;68.20;;;;;;5041693;28;20679;-74
2022/06/15 01:02:42;;;;;;;0.75;0.75;;;17.60;68.20;;;;;;5040854;28;20199;-75
2022/06/15 01:05:17;;;;;;;0.80;0.80;;;17.60;68.30;;;;;;5041104;28;20696;-74
2022/06/15 01:08:08;;;;;;;1.50;0.80;;;17.70;69.00;;;;;;5042469;28;20538;-74
2022/06/15 01:11:11;;;;;;;0.60;0.60;;;17.70;68.60;;;;;;4979315;28;20345;-73
2022/06/15 01:14:07;;;;;;;0.70;0.70;;;17.70;68.40;;;;;;4981585;28;20316;-74
2022/06/15 01:16:53;;;;;;;0.80;0.80;;;17.70;68.70;;;;;;4979711;28;20325;-74
2022/06/15 01:20:06;;;;;;;0.75;0.75;;;17.70;68.20;;;;;;4977298;28;20221;-74
2022/06/15 01:23:00;;;;;;;1.20;0.98;;;17.70;67.80;;;;;;4903810;29;20300;-74
2022/06/15 01:26:08;;;;;;;1.70;0.80;;;17.70;68.30;;;;;;4904786;29;20332;-76
2022/06/15 01:28:47;;;;;;;1.00;0.80;;;17.70;68.40;;;;;;4900521;29;20208;-74
2022/06/15 01:31:47;;;;;;;0.88;0.88;;;17.70;67.90;;;;;;4904452;29;20219;-74
2022/06/15 01:34:31;;;;;;;0.70;0.70;;;17.60;68.30;;;;;;4904217;29;20207;-74
2022/06/15 01:37:06;;;;;;;0.80;0.80;;;17.60;68.20;;;;;;4902693;29;20229;-74
2022/06/15 01:39:41;;;;;;;0.77;0.65;;;17.50;68.40;;;;;;4902843;29;20203;-74
2022/06/15 01:42:17;;;;;;;0.60;0.60;;;17.60;68.50;;;;;;4903371;29;20290;-74
2022/06/15 01:44:46;;;;;;;2.25;0.90;;;17.50;67.80;;;;;;4904907;29;20219;-73
2022/06/15 01:47:20;;;;;;;0.70;0.70;;;17.50;68.60;;;;;;4920192;28;20202;-74
2022/06/15 01:49:51;;;;;;;0.60;0.60;;;17.40;68.60;;;;;;4952025;28;20640;-74
2022/06/15 01:52:22;;;;;;;0.75;0.75;;;17.40;68.60;;;;;;4955725;28;20650;-73
2022/06/15 01:55:03;;;;;;;0.60;0.60;;;17.30;69.00;;;;;;4954609;28;20201;-74
2022/06/15 01:57:31;;;;;;;0.88;0.70;;;17.40;69.00;;;;;;4960125;28;20217;-74
2022/06/15 02:00:17;;;;;;;3.92;1.15;;;17.30;69.00;;;;;;5035097;28;20196;-73
2022/06/15 02:03:05;;;;;;;2.55;0.80;;;17.40;69.10;;;;;;5040005;28;20175;-74
2022/06/15 02:05:47;;;;;;;0.60;0.60;;;17.30;69.10;;;;;;5041134;28;21453;-74
2022/06/15 02:08:20;;;;;;;3.55;0.95;;;17.30;69.20;;;;;;5040523;28;20187;-74
2022/06/15 02:10:58;;;;;;;1.10;1.00;;;17.30;69.40;;;;;;5043429;28;20184;-73
2022/06/15 02:13:36;;;;;;;0.63;0.63;;;17.30;69.40;;;;;;5042851;28;20191;-73
2022/06/15 02:16:12;;;;;;;1.63;0.88;;;17.20;69.50;;;;;;5040935;28;20198;-74
2022/06/15 02:18:41;;;;;;;0.70;0.70;;;17.20;69.50;;;;;;5040066;28;20854;-74
2022/06/15 02:21:10;;;;;;;0.73;0.73;;;17.20;69.40;;;;;;5041701;28;20248;-74
2022/06/15 02:23:39;;;;;;;0.85;0.85;;;17.20;69.70;;;;;;5039366;28;20186;-74
2022/06/15 02:26:06;;;;;;;0.80;0.80;;;17.10;69.60;;;;;;5041187;28;20229;-74
2022/06/15 02:28:39;;;;;;;0.80;0.80;;;17.10;69.60;;;;;;5040487;28;20309;-74
2022/06/15 02:31:05;;;;;;;0.90;0.90;;;17.10;69.70;;;;;;5042968;28;20219;-74
2022/06/15 02:33:33;;;;;;;1.00;1.00;;;17.00;69.80;;;;;;5041601;28;20206;-72
2022/06/15 02:36:02;;;;;;;0.70;0.70;;;17.00;70.00;;;;;;5041178;28;20198;-74
2022/06/15 02:38:30;;;;;;;0.75;0.75;;;17.00;70.10;;;;;;5038054;28;20838;-74
2022/06/15 02:40:55;;;;;;;0.75;0.75;;;16.90;69.90;;;;;;5039689;28;20195;-74
2022/06/15 02:43:26;;;;;;;0.93;0.90;;;16.90;70.10;;;;;;5042736;28;20212;-74
2022/06/15 02:45:55;;;;;;;1.00;1.00;;;16.90;70.00;;;;;;5041259;28;20233;-73
2022/06/15 02:48:22;;;;;;;0.80;0.80;;;16.90;70.20;;;;;;5042007;28;20183;-74
2022/06/15 02:50:57;;;;;;;0.88;0.88;;;16.80;70.00;;;;;;5041827;28;20198;-74
2022/06/15 02:53:29;;;;;;;0.90;0.90;;;16.80;69.80;;;;;;5041061;28;20206;-75
2022/06/15 02:55:57;;;;;;;0.77;0.75;;;16.80;70.40;;;;;;5042566;28;20175;-73
2022/06/15 02:58:27;;;;;;;0.85;0.85;;;16.70;70.40;;;;;;5043995;28;20301;-74
2022/06/15 03:00:54;;;;;;;1.33;0.70;;;16.80;70.40;;;;;;5046635;28;20664;-74
2022/06/15 03:03:22;;;;;;;0.70;0.70;;;16.80;70.40;;;;;;5045263;28;20238;-74
2022/06/15 03:05:53;;;;;;;0.93;0.75;;;16.70;70.20;;;;;;5043634;28;20180;-74
2022/06/15 03:08:20;;;;;;;1.10;1.10;;;16.80;70.30;;;;;;5044781;28;20248;-73
2022/06/15 03:10:48;;;;;;;1.10;1.00;;;16.70;70.20;;;;;;5045326;28;20241;-73
2022/06/15 03:13:14;;;;;;;0.80;0.75;;;16.70;70.10;;;;;;5045030;28;20179;-74
2022/06/15 03:15:44;;;;;;;4.40;0.88;;;16.70;69.90;;;;;;5044271;28;20191;-73
2022/06/15 03:18:12;;;;;;;0.80;0.80;;;16.70;70.20;;;;;;5042698;28;20211;-74
2022/06/15 03:20:38;;;;;;;0.68;0.68;;;16.70;70.10;;;;;;5043921;28;20187;-74
2022/06/15 03:23:06;;;;;;;1.33;1.17;;;16.70;70.10;;;;;;5044829;28;20191;-74
2022/06/15 03:25:36;;;;;;;1.23;1.23;;;16.70;70.20;;;;;;5039823;28;20740;-74
2022/06/15 03:28:02;;;;;;;1.08;1.00;;;16.80;70.10;;;;;;5044404;28;20184;-72
2022/06/15 03:30:28;;;;;;;1.10;1.10;;;16.80;70.20;;;;;;5046019;28;20163;-74
2022/06/15 03:32:53;;;;;;;2.05;0.98;;;16.80;70.20;;;;;;5046791;28;20191;-73
2022/06/15 03:35:19;;;;;;;1.15;1.02;;;16.80;70.40;;;;;;5046187;28;20191;-74
2022/06/15 03:37:49;;;;;;;0.90;0.90;;;16.80;70.60;;;;;;5045807;28;20261;-74
2022/06/15 03:40:15;;;;;;;1.30;1.30;;;16.80;70.80;;;;;;5046604;28;20184;-74
2022/06/15 03:42:41;;;;;;;1.42;1.33;;;16.80;70.80;;;;;;5042290;28;20798;-74
2022/06/15 03:45:09;;;;;;;3.38;1.08;;;16.80;71.10;;;;;;5044999;28;20180;-73
2022/06/15 03:47:35;;;;;;;3.15;1.10;;;16.80;71.30;;;;;;5044634;28;20272;-72
2022/06/15 03:50:01;;;;;;;1.25;1.25;;;16.80;71.40;;;;;;5044013;28;20270;-73
2022/06/15 03:52:27;;;;;;;1.65;1.20;;;16.80;71.60;;;;;;5043561;28;20940;-73
2022/06/15 03:54:53;;;;;;;1.10;1.10;;;16.80;71.80;;;;;;5045004;28;20215;-74
2022/06/15 03:57:20;;;;;;;1.45;1.27;;;16.80;72.30;;;;;;5042143;28;20204;-73
2022/06/15 03:59:47;;;;;;;0.90;0.90;;;16.80;72.40;;;;;;5045395;28;20260;-74
2022/06/15 04:02:13;;;;;;;0.75;0.75;;;16.80;72.70;;;;;;5041407;28;20233;-74
2022/06/15 04:04:39;;;;;;;0.95;0.93;;;16.80;72.80;;;;;;5043229;28;20187;-74
2022/06/15 04:08:34;;;;;;;0.88;0.88;;;16.70;73.10;;;;;;5043748;28;20277;-74
2022/06/15 04:09:55;;;;;;;1.58;1.10;;;16.70;72.70;;;;;;5042029;28;20188;-74
2022/06/15 04:12:21;;;;;;;1.25;0.88;;;16.70;73.00;;;;;;5045136;28;20186;-74
2022/06/15 04:14:47;;;;;;;0.88;0.88;;;16.70;73.40;;;;;;5041723;28;20595;-73
2022/06/15 04:17:13;;;;;;;1.02;1.02;;;16.70;73.40;;;;;;5044525;28;20211;-73
2022/06/15 04:19:39;;;;;;;0.98;0.98;;;16.70;73.50;;;;;;5043838;28;22617;-73
2022/06/15 04:22:05;;;;;;;1.02;0.98;;;16.70;74.30;;;;;;5043735;28;20188;-74
2022/06/15 04:24:31;;;;;;;1.45;1.10;;;16.70;74.10;;;;;;5043425;28;20184;-74
2022/06/15 04:26:57;;;;;;;2.42;0.60;;;16.70;74.00;;;;;;5045123;28;20610;-74
2022/06/15 04:29:24;;;;;;;2.08;1.00;;;16.70;74.40;;;;;;5042770;28;20191;-74
2022/06/15 04:31:50;;;;;;;1.35;1.13;;;16.70;74.00;;;;;;5045458;28;20267;-74
2022/06/15 04:34:16;;;;;;;3.25;1.20;;;16.70;74.20;;;;;;5041892;28;20724;-75
2022/06/15 04:36:44;;;;;;;1.38;1.38;;;16.70;73.90;;;;;;5044576;28;20186;-74
2022/06/15 04:39:12;;;;;;;1.05;1.05;;;16.70;74.80;;;;;;5044003;28;20839;-77
2022/06/15 04:41:39;;;;;;;1.08;1.08;;;16.80;74.50;;;;;;5042732;28;20237;-75
2022/06/15 04:44:07;;;;;;;1.67;1.10;;;16.80;74.90;;;;;;5042670;28;20206;-74
2022/06/15 04:46:34;;;;;;;0.80;0.80;;;16.80;74.60;;;;;;5044593;28;20188;-74
2022/06/15 04:49:00;;;;;;;1.75;1.30;;;16.80;74.90;;;;;;5041878;28;20234;-75
2022/06/15 04:51:27;;;;;;;1.60;1.20;;;16.90;74.90;;;;;;5040254;28;20176;-73
2022/06/15 04:53:54;;;;;;;1.23;1.05;;;16.90;74.70;;;;;;5045930;28;20326;-73
2022/06/15 04:56:21;;;;;;;1.70;1.40;;;16.90;75.10;;;;;;5039497;28;20672;-72
2022/06/15 04:58:47;;;;;;;1.27;1.17;;;16.90;75.20;;;;;;5043087;28;20211;-73
2022/06/15 05:01:15;;;;;;;1.27;1.17;;;17.00;75.30;;;;;;5041613;28;20184;-73
2022/06/15 05:03:41;;;;;;;1.33;1.23;;;17.00;75.40;;;;;;5042303;28;20183;-72
2022/06/15 05:06:21;;;;;;;1.27;1.27;;;17.00;75.40;;;;;;5042029;28;20267;-73
2022/06/15 05:08:47;;;;;;;0.85;0.85;;;17.00;75.10;;;;;;5043113;28;20205;-73
2022/06/15 05:11:12;;;;;;;1.02;1.02;;;17.10;75.00;;;;;;5039734;28;20179;-73
2022/06/15 05:13:38;;;;;;;1.13;1.08;;;17.10;75.10;;;;;;5042977;28;20222;-73
2022/06/15 05:16:04;;;;;;;1.23;1.08;;;17.10;74.90;;;;;;5040881;28;20218;-74
2022/06/15 05:18:30;;;;;;;3.13;1.00;;;17.20;75.10;;;;;;5038691;28;20665;-74
2022/06/15 05:20:56;;;;;;;2.92;1.45;;;17.20;74.90;;;;;;5034978;28;20188;-74
2022/06/15 05:23:22;;;;;;;1.50;1.10;;;17.20;75.00;;;;;;5041138;28;20188;-75
2022/06/15 05:25:48;;;;;;;1.27;1.27;;;17.30;74.90;;;;;;5042690;28;20194;-76
2022/06/15 05:28:14;;;;;;;1.95;1.17;;;17.30;75.00;;;;;;5040259;28;20274;-75
2022/06/15 05:30:40;;;;;;;1.98;1.08;;;17.40;75.10;;;;;;5037809;28;20180;-77
2022/06/15 05:33:05;;;;;;;1.00;1.00;;;17.40;75.00;;;;;;5034244;28;20576;-81
2022/06/15 05:35:32;;;;;;;1.17;1.17;;;17.50;75.00;;;;;;5041103;28;20199;-76
2022/06/15 05:37:57;;;;;;;1.10;1.10;;;17.50;74.80;;;;;;5039726;28;20223;-75
2022/06/15 05:40:23;;;;;;;1.45;1.33;;;17.50;75.10;;;;;;5036965;28;20215;-76
2022/06/15 05:42:49;;;;;;;2.92;1.33;;;17.60;75.00;;;;;;5041959;28;20176;-75
2022/06/15 05:45:14;;;;;;;1.27;1.23;;;17.70;74.90;;;;;;5041173;28;20617;-76
2022/06/15 05:47:40;;;;;;;1.42;1.10;;;17.70;73.30;;;;;;5037986;28;20184;-79
2022/06/15 05:50:07;;;;;;;3.90;1.00;;;17.70;73.70;;;;;;5039664;28;20180;-77
2022/06/15 05:52:33;;;;;;;2.58;1.15;;;17.80;73.70;;;;;;5041228;28;20187;-77
2022/06/15 05:55:01;;;;;;;1.08;1.08;;;17.90;73.50;;;;;;5041016;28;20714;-79
2022/06/15 05:57:27;;;;;;;1.15;1.15;;;17.80;71.50;;;;;;5040688;28;20996;-79
2022/06/15 05:59:56;;;;;;;1.00;1.00;;;17.80;71.70;;;;;;5041027;28;20659;-80
2022/06/15 06:02:24;;;;;;;1.25;1.15;;;17.90;71.70;;;;;;5041087;28;20804;-77
2022/06/15 06:04:50;;;;;;;1.30;1.30;;;17.90;72.40;;;;;;5042276;28;20180;-75
2022/06/15 06:07:18;;;;;;;1.10;1.10;;;18.00;72.80;;;;;;5038505;28;20187;-77
2022/06/15 06:09:43;;;;;;;1.20;1.20;;;18.10;72.10;;;;;;5041500;28;20168;-78
2022/06/15 06:12:10;;;;;;;2.70;1.00;;;18.20;71.70;;;;;;5041168;28;20190;-79
2022/06/15 06:14:37;;;;;;;0.85;0.85;;;18.30;71.00;;;;;;5042223;28;20610;-80
2022/06/15 06:17:07;;;;;;;0.90;0.90;;;18.30;70.30;;;;;;5041536;28;20948;-79
2022/06/15 06:19:33;;;;;;;0.82;0.82;;;18.20;69.80;;;;;;5040881;28;20195;-79
2022/06/15 06:21:59;;;;;;;1.05;1.05;;;18.30;70.50;;;;;;5041292;28;20182;-79
2022/06/15 06:24:24;;;;;;;2.08;1.35;;;18.40;70.20;;;;;;5040696;28;20183;-79
2022/06/15 06:26:57;;;;;;;1.17;0.90;;;18.40;70.40;;;;;;5040752;28;20710;-78
2022/06/15 06:29:22;;;;;;;1.55;1.10;;;18.60;70.80;;;;;;5040211;28;20198;-78
2022/06/15 06:31:50;;;;;;;1.42;0.80;;;18.60;70.50;;;;;;5041609;28;20192;-77
2022/06/15 06:34:16;;;;;;;0.80;0.80;;;18.60;69.50;;;;;;5041899;28;20175;-80
2022/06/15 06:36:44;;;;;;;1.67;1.10;;;18.60;70.20;;;;;;5044425;28;20194;-79
2022/06/15 06:39:17;;;;;;;0.73;0.73;;;18.60;70.00;;;;;;5043157;28;20226;-79
2022/06/15 06:41:42;;;;;;;2.30;0.75;;;18.70;68.70;;;;;;5042232;28;20565;-79
2022/06/15 06:44:10;;;;;;;0.80;0.80;;;18.80;69.60;;;;;;5043515;28;20171;-78
2022/06/15 06:46:36;;;;;;;1.00;1.00;;;18.90;69.70;;;;;;5045385;28;20187;-79
2022/06/15 06:49:05;;;;;;;1.50;0.73;;;18.90;69.40;;;;;;5042589;28;20206;-78
2022/06/15 06:51:32;;;;;;;0.85;0.85;;;19.00;68.80;;;;;;5045797;28;20180;-78
2022/06/15 06:53:57;;;;;;;4.95;1.08;;;19.10;69.00;;;;;;5045321;28;20191;-77
2022/06/15 06:56:23;;;;;;;0.90;0.90;;;19.10;69.00;;;;;;5041398;28;20187;-78
2022/06/15 06:58:49;;;;;;;1.20;1.10;;;19.20;69.60;;;;;;5044403;28;20230;-76
2022/06/15 07:01:14;;;;;;;0.77;0.77;;;19.30;69.70;;;;;;5042238;28;20187;-75
2022/06/15 07:03:40;;;;;;;1.00;1.00;;;19.30;69.10;;;;;;5046558;28;20192;-77
2022/06/15 07:06:09;;;;;;;0.95;0.90;;;19.30;69.20;;;;;;5044626;28;20190;-75
2022/06/15 07:08:37;;;;;;;1.00;1.00;;;19.40;69.80;;;;;;5043980;28;20219;-76
2022/06/15 07:11:08;;;;;;;1.42;1.33;;;19.50;69.80;;;;;;5045342;28;20183;-76
2022/06/15 07:13:34;;;;;;;1.05;1.05;;;19.50;69.90;;;;;;5043751;28;20724;-74
2022/06/15 07:16:04;;;;;;;0.80;0.80;;;19.60;69.80;;;;;;5041901;28;20179;-76
2022/06/15 07:18:29;;;;;;;1.00;0.90;;;19.70;69.50;;;;;;5041241;28;20253;-76
2022/06/15 07:21:00;;;;;;;0.70;0.70;;;19.60;69.00;;;;;;5040589;28;20191;-76
2022/06/15 07:23:25;;;;;;;0.90;0.90;;;19.60;69.00;;;;;;5042914;28;20761;-76
2022/06/15 07:25:51;;;;;;;1.13;1.02;;;19.50;69.10;;;;;;5043308;28;20336;-75
2022/06/15 07:28:17;;;;;;;0.85;0.85;;;19.60;69.20;;;;;;5045235;28;20203;-76
2022/06/15 07:30:42;;;;;;;1.20;1.15;;;19.60;69.50;;;;;;5046085;28;20567;-76
2022/06/15 07:33:08;;;;;;;3.80;1.02;;;19.60;68.30;;;;;;5045605;28;20687;-76
2022/06/15 07:35:36;;;;;;;0.80;0.80;;;19.60;68.80;;;;;;5035730;28;20187;-77
2022/06/15 07:38:02;;;;;;;0.98;0.98;;;19.60;68.50;;;;;;5038742;28;20218;-76
2022/06/15 07:40:28;;;;;;;0.75;0.75;;;19.60;68.50;;;;;;5041243;28;20180;-76
2022/06/15 07:42:55;;;;;;;1.58;0.90;;;19.70;69.00;;;;;;5035829;28;20647;-77
2022/06/15 07:45:23;;;;;;;2.15;1.20;;;19.80;69.00;;;;;;5036742;28;20215;-76
2022/06/15 07:50:34;;;;;;;1.17;1.10;;;19.80;68.30;;;;;;5039542;28;20594;-76
2022/06/15 07:53:03;;;;;;;2.63;1.02;;;19.80;68.60;;;;;;5043641;28;20211;-76
2022/06/15 07:55:32;;;;;;;1.33;1.23;;;19.90;69.10;;;;;;5052264;28;20179;-75
2022/06/15 07:57:58;;;;;;;0.90;0.90;;;19.80;68.10;;;;;;5051556;28;20622;-75
2022/06/15 08:00:24;;;;;;;2.38;0.80;;;19.90;68.60;;;;;;5045806;28;20188;-75
2022/06/15 08:02:52;;;;;;;0.93;0.93;;;20.00;68.70;;;;;;5038283;28;20617;-75
2022/06/15 08:05:19;;;;;;;0.65;0.65;;;20.00;67.60;;;;;;5041783;28;20180;-75
2022/06/15 08:07:46;;;;;;;0.80;0.80;;;20.00;66.90;;;;;;5042060;28;20190;-76
2022/06/15 08:10:18;;;;;;;0.75;0.75;;;20.10;67.20;;;;;;5037267;28;20179;-73
2022/06/15 08:12:45;;;;;;;1.30;0.93;;;20.20;68.00;;;;;;5039677;28;20172;-76
2022/06/15 08:15:11;;;;;;;2.30;0.90;;;20.20;67.70;;;;;;5041231;28;20188;-76
2022/06/15 08:17:40;;;;;;;0.85;0.85;;;20.30;68.10;;;;;;5039167;28;20223;-75
2022/06/15 08:20:12;;;;;;;1.17;0.98;;;20.30;67.50;;;;;;5040129;28;20194;-76
2022/06/15 08:22:40;;;;;;;1.05;0.90;;;20.30;68.30;;;;;;5040137;28;20183;-75
2022/06/15 08:25:08;;;;;;;0.88;0.88;;;20.30;67.70;;;;;;5036659;28;20191;-75
2022/06/15 08:27:36;;;;;;;0.80;0.80;;;20.30;67.60;;;;;;5039861;28;20586;-76
2022/06/15 08:30:04;;;;;;;0.75;0.75;;;20.30;67.90;;;;;;5041531;28;20191;-76
2022/06/15 08:32:29;;;;;;;1.05;1.00;;;20.40;68.90;;;;;;5040601;28;20620;-75
2022/06/15 08:34:55;;;;;;;1.02;0.82;;;20.40;66.80;;;;;;5042218;28;20184;-76
2022/06/15 08:37:21;;;;;;;1.33;0.98;;;20.40;67.40;;;;;;5041606;28;20314;-77
2022/06/15 08:39:48;;;;;;;1.25;1.15;;;20.60;68.30;;;;;;5042010;28;20665;-77
2022/06/15 08:42:24;;;;;;;0.98;0.98;;;20.50;67.10;;;;;;5037269;28;20267;-76
2022/06/15 08:45:18;;;;;;;1.10;1.10;;;20.50;67.80;;;;;;5041726;28;20571;-76
2022/06/15 08:48:05;;;;;;;1.02;0.95;;;20.70;67.80;;;;;;5043028;28;20687;-76
2022/06/15 08:50:42;;;;;;;0.60;0.60;;;20.70;67.40;;;;;;5043179;28;20187;-75
2022/06/15 08:53:27;;;;;;;0.80;0.80;;;20.80;66.80;;;;;;5038027;28;20270;-77
2022/06/15 08:56:01;;;;;;;0.85;0.85;;;20.80;65.50;;;;;;5042351;28;20650;-77
2022/06/15 08:58:39;;;;;;;1.13;1.08;;;20.80;66.40;;;;;;5042553;28;20243;-76
2022/06/15 09:01:19;;;;;;;0.80;0.80;;;21.00;66.80;;;;;;5042842;28;20211;-77
2022/06/15 09:04:02;;;;;;;0.77;0.75;;;21.10;66.60;;;;;;5043212;28;20179;-76
2022/06/15 09:06:39;;;;;;;0.70;0.70;;;21.20;65.00;;;;;;5042907;28;20175;-75
2022/06/15 09:09:27;;;;;;;1.10;0.88;;;21.30;66.20;;;;;;5041609;28;20180;-76
2022/06/15 09:15:05;;;;;;;0.63;0.63;;;21.60;64.90;;;;;;5042034;28;20191;-75
2022/06/15 09:17:31;;;;;;;1.80;0.90;;;21.70;65.30;;;;;;5039804;28;20219;-75
2022/06/15 09:20:08;;;;;;;0.82;0.82;;;21.70;64.30;;;;;;5043843;28;20612;-75
2022/06/15 09:22:50;;;;;;;1.05;1.00;;;21.50;64.10;;;;;;5043788;28;20183;-75
2022/06/15 09:25:22;;;;;;;0.65;0.65;;;21.50;63.80;;;;;;5041019;28;20333;-76
2022/06/15 09:27:53;;;;;;;3.38;0.88;;;21.50;64.90;;;;;;5042629;28;20240;-76
2022/06/15 09:30:27;;;;;;;0.88;0.88;;;21.70;66.00;;;;;;5042400;28;20589;-76
2022/06/15 09:33:28;;;;;;;0.82;0.82;;;21.80;65.70;;;;;;5042771;28;20227;-76
2022/06/15 09:36:02;;;;;;;0.95;0.95;;;22.00;65.70;;;;;;5042001;28;20256;-76
2022/06/15 09:38:31;;;;;;;2.35;0.98;;;22.10;65.50;;;;;;5041622;28;20516;-75
2022/06/15 09:41:07;;;;;;;0.70;0.70;;;22.20;65.80;;;;;;5041987;28;20597;-75
2022/06/15 09:43:38;;;;;;;0.90;0.90;;;22.30;64.90;;;;;;5041959;28;20194;-75
2022/06/15 09:46:33;;;;;;;0.82;0.82;;;22.40;65.50;;;;;;5041508;28;20249;-75
2022/06/15 09:49:04;;;;;;;0.95;0.95;;;22.60;65.50;;;;;;5039733;28;20180;-75
2022/06/15 09:51:41;;;;;;;1.02;1.02;;;22.70;64.90;;;;;;5039979;28;20183;-76
2022/06/15 09:54:20;;;;;;;1.27;1.05;;;22.80;65.60;;;;;;5043124;28;20179;-76
2022/06/15 09:56:48;;;;;;;0.80;0.80;;;23.00;64.90;;;;;;5040066;28;20592;-76
2022/06/15 09:59:18;;;;;;;0.70;0.70;;;23.10;63.80;;;;;;5042710;28;20195;-76
2022/06/15 10:01:45;;;;;;;1.20;1.08;;;23.20;63.40;;;;;;5042250;28;20851;-77
2022/06/15 10:04:22;;;;;;;0.75;0.75;;;23.20;61.80;;;;;;5043498;28;20659;-76
2022/06/15 10:06:53;;;;;;;1.38;0.95;;;23.20;61.90;;;;;;5043845;28;20186;-77
2022/06/15 10:09:26;;;;;;;1.60;0.93;;;23.30;63.20;;;;;;5041021;28;20618;-76
2022/06/15 10:15:16;;;;;;;0.80;0.80;;;23.40;62.80;;;;;;4980268;28;20197;-75
2022/06/15 10:17:48;;;;;;;2.05;1.25;;;23.50;63.20;;;;;;4981314;28;20221;-75
2022/06/15 10:20:54;;;;;;;0.88;0.88;;;23.70;61.90;;;;;;4980517;28;20685;-75
2022/06/15 10:23:36;;;;;;;1.02;1.02;;;23.80;60.70;;;;;;4924531;29;20290;-76
2022/06/15 10:26:02;;;;;;;5.05;1.20;;;24.10;61.00;;;;;;4923660;29;20207;-76
2022/06/15 10:28:38;;;;;;;1.00;1.00;;;24.20;60.20;;;;;;4924074;29;20198;-77
2022/06/15 10:31:12;;;;;;;1.20;1.20;;;24.30;60.30;;;;;;4924679;29;20242;-76
2022/06/15 10:33:51;;;;;;;0.90;0.90;;;24.60;59.30;;;;;;4923398;29;20602;-75
2022/06/15 10:36:32;;;;;;;1.45;0.80;;;24.90;60.20;;;;;;4920653;29;20681;-75
2022/06/15 10:39:03;;;;;;;0.80;0.80;;;25.20;58.80;;;;;;4922844;29;20223;-76
2022/06/15 10:41:48;;;;;;;1.08;0.98;;;25.40;59.20;;;;;;4921750;29;20211;-76
2022/06/15 10:44:40;;;;;;;1.25;1.10;;;25.70;58.90;;;;;;4922822;29;20662;-75
2022/06/15 10:47:19;;;;;;;0.80;0.80;;;26.10;57.90;;;;;;4923897;29;20195;-76
2022/06/15 10:50:00;;;;;;;0.82;0.82;;;26.60;59.50;;;;;;4919777;29;20628;-76
2022/06/15 10:52:37;;;;;;;2.10;0.98;;;26.80;56.70;;;;;;4960824;28;20788;-78
2022/06/15 11:04:19;;;;;;;0.93;0.93;;;28.90;53.60;;;;;;4900961;29;20203;-76
2022/06/15 11:06:50;;;;;;;4.50;0.85;;;29.00;52.70;;;;;;4896475;29;20197;-78
2022/06/15 11:09:42;;;;;;;0.80;0.80;;;29.40;54.00;;;;;;4901791;29;20315;-77
2022/06/15 11:12:43;;;;;;;0.98;0.85;;;29.50;54.70;;;;;;4902203;29;20665;-76
2022/06/15 11:15:17;;;;;;;2.78;1.27;;;29.60;53.50;;;;;;4899710;29;20207;-76
2022/06/15 11:18:17;;;;;;;0.80;0.80;;;29.50;56.60;;;;;;4900921;29;20220;-76
2022/06/15 11:21:15;;;;;;;1.15;0.90;;;29.20;53.10;;;;;;4905233;29;20637;-76
2022/06/15 11:24:22;;;;;;;2.55;1.20;;;29.20;55.50;;;;;;4906354;29;20204;-76
2022/06/15 11:26:57;;;;;;;0.80;0.80;;;29.50;53.70;;;;;;4831333;29;20595;-75
2022/06/15 11:29:44;;;;;;;0.93;0.93;;;29.60;53.40;;;;;;4831305;29;20221;-76
2022/06/15 11:32:47;;;;;;;1.00;1.00;;;29.70;53.80;;;;;;4831269;29;20282;-77
2022/06/15 11:35:13;;;;;;;0.65;0.65;;;30.10;52.30;;;;;;4829833;29;20285;-76
2022/06/15 11:37:59;;;;;;;0.80;0.73;;;30.70;52.20;;;;;;4889758;28;20304;-75
2022/06/15 11:40:39;;;;;;;1.00;1.00;;;31.50;51.40;;;;;;4960556;28;20245;-76
2022/06/15 11:43:25;;;;;;;0.90;0.90;;;32.00;51.50;;;;;;4961414;28;20240;-74
2022/06/15 11:45:54;;;;;;;0.85;0.85;;;32.60;48.60;;;;;;4960819;28;20186;-75
2022/06/15 11:48:45;;;;;;;0.80;0.80;;;32.60;47.60;;;;;;4962340;28;20196;-76
2022/06/15 11:51:22;;;;;;;0.80;0.80;;;32.60;51.10;;;;;;4961222;28;20197;-77
2022/06/15 11:54:13;;;;;;;1.10;0.80;;;32.90;48.60;;;;;;4962233;28;20185;-76
2022/06/15 11:57:07;;;;;;;0.75;0.75;;;33.40;49.20;;;;;;4879385;29;20201;-77
2022/06/15 11:59:47;;;;;;;1.50;1.05;;;33.90;48.30;;;;;;4846244;29;20672;-77
2022/06/15 12:02:24;;;;;;;0.80;0.80;;;34.30;48.00;;;;;;4842531;29;20284;-76
2022/06/15 12:05:07;;;;;;;1.20;1.10;;;34.60;45.80;;;;;;4884879;29;20232;-76
2022/06/15 12:07:47;;;;;;;0.85;0.85;;;34.50;46.60;;;;;;4882596;29;20831;-76
2022/06/15 12:10:48;;;;;;;1.00;1.00;;;34.40;48.50;;;;;;4882806;29;20604;-77
2022/06/15 12:13:21;;;;;;;0.80;0.80;;;34.00;47.10;;;;;;4830701;29;20205;-77
2022/06/15 12:16:06;;;;;;;1.33;1.10;;;33.60;49.50;;;;;;4825629;29;20199;-77
2022/06/15 12:18:51;;;;;;;0.98;0.98;;;33.20;49.00;;;;;;4826385;29;20238;-75
2022/06/15 12:21:23;;;;;;;1.65;1.17;;;33.00;50.70;;;;;;4827605;29;20202;-75
2022/06/15 12:23:58;;;;;;;0.88;0.88;;;33.20;49.20;;;;;;4829066;29;20201;-76
2022/06/15 12:26:29;;;;;;;1.88;0.82;;;33.50;48.90;;;;;;4829608;29;20223;-78
2022/06/15 12:29:10;;;;;;;0.93;0.88;;;33.80;49.70;;;;;;4828234;29;20191;-77
2022/06/15 12:31:59;;;;;;;5.30;1.35;;;33.90;48.80;;;;;;4828317;29;20279;-76
2022/06/15 12:34:37;;;;;;;1.30;1.30;;;33.90;49.00;;;;;;4886693;29;21124;-75
2022/06/15 12:37:31;;;;;;;1.02;1.02;;;33.90;48.50;;;;;;4918962;28;20189;-75
2022/06/15 12:40:36;;;;;;;0.90;0.90;;;33.60;48.30;;;;;;4937307;29;20202;-76
2022/06/15 12:43:13;;;;;;;1.20;1.20;;;33.90;48.20;;;;;;4888232;29;20199;-76
2022/06/15 12:45:51;;;;;;;1.30;1.30;;;34.50;47.70;;;;;;4891392;29;20561;-75
2022/06/15 12:48:47;;;;;;;1.10;1.10;;;34.70;49.50;;;;;;4868781;29;20180;-76
2022/06/15 12:51:23;;;;;;;1.30;1.20;;;34.40;48.00;;;;;;4882084;29;20258;-75
2022/06/15 12:54:35;;;;;;;1.15;1.15;;;33.90;48.90;;;;;;4883961;29;20211;-76
2022/06/15 12:57:19;;;;;;;1.35;1.35;;;33.40;50.70;;;;;;4889466;29;20255;-76
2022/06/15 13:00:12;;;;;;;1.45;1.33;;;33.10;49.70;;;;;;4883794;29;20207;-77
2022/06/15 13:02:43;;;;;;;1.98;1.33;;;33.10;50.30;;;;;;4884586;29;20193;-76
2022/06/15 13:05:22;;;;;;;1.60;1.60;;;33.30;53.10;;;;;;4886341;29;20669;-75
2022/06/15 13:08:11;;;;;;;1.65;1.55;;;33.40;50.90;;;;;;4865543;29;20598;-76
2022/06/15 13:10:58;;;;;;;1.95;1.95;;;33.10;52.60;;;;;;4891218;29;20761;-75
2022/06/15 13:13:35;;;;;;;1.38;1.38;;;32.90;52.00;;;;;;4887270;29;20725;-74
2022/06/15 13:16:09;;;;;;;4.00;1.80;;;32.40;54.10;;;;;;4889455;29;20192;-74
2022/06/15 13:18:49;;;;;;;2.10;2.00;;;32.00;52.90;;;;;;4940493;29;20556;-75
2022/06/15 13:21:19;;;;;;;1.65;1.65;;;31.60;54.20;;;;;;4939086;29;20234;-74
2022/06/15 13:23:51;;;;;;;2.17;1.50;;;31.50;54.20;;;;;;4942343;29;20582;-75
2022/06/15 13:26:25;;;;;;;1.40;1.40;;;31.70;55.10;;;;;;4939872;29;20214;-74
2022/06/15 13:29:03;;;;;;;1.58;1.58;;;32.20;54.70;;;;;;4940142;29;20189;-74
2022/06/15 13:31:44;;;;;;;2.75;1.58;;;32.90;51.80;;;;;;4940690;29;20680;-74
2022/06/15 13:34:30;;;;;;;2.05;1.65;;;33.60;51.90;;;;;;5026066;28;20640;-74
2022/06/15 13:37:15;;;;;;;1.48;1.48;;;34.30;53.20;;;;;;5041623;28;20183;-74